sensor_id;sensor_type;location;lat;lon;timestamp;P1;durP1;ratioP1;P2;durP2;ratioP2
22603;SDS011;11469;49.024;8.246;2023-07-09T00:01:47;10.45;;;5.70;;
22603;SDS011;11469;49.024;8.246;2023-07-09T00:04:12;15.40;;;5.75;;
22603;SDS011;11469;49.024;8.246;2023-07-09T00:06:38;7.38;;;4.85;;
22603;SDS011;11469;49.024;8.246;2023-07-09T00:09:05;7.78;;;5.00;;
22603;SDS011;11469;49.024;8.246;2023-07-09T00:11:33;9.75;;;5.32;;
22603;SDS011;11469;49.024;8.246;2023-07-09T00:13:58;9.07;;;5.00;;
22603;SDS011;11469;49.024;8.246;2023-07-09T00:16:24;8.90;;;5.70;;
22603;SDS011;11469;49.024;8.246;2023-07-09T00:18:50;9.73;;;5.55;;
22603;SDS011;11469;49.024;8.246;2023-07-09T00:21:16;10.07;;;5.43;;
22603;SDS011;11469;49.024;8.246;2023-07-09T00:23:43;8.48;;;4.93;;
22603;SDS011;11469;49.024;8.246;2023-07-09T00:26:12;10.23;;;4.72;;
22603;SDS011;11469;49.024;8.246;2023-07-09T00:28:39;8.38;;;5.28;;
22603;SDS011;11469;49.024;8.246;2023-07-09T00:31:05;10.23;;;5.57;;
22603;SDS011;11469;49.024;8.246;2023-07-09T00:33:31;9.90;;;5.28;;
22603;SDS011;11469;49.024;8.246;2023-07-09T00:35:56;12.65;;;4.78;;
22603;SDS011;11469;49.024;8.246;2023-07-09T00:38:22;10.38;;;4.55;;
22603;SDS011;11469;49.024;8.246;2023-07-09T00:43:24;10.18;;;4.97;;
22603;SDS011;11469;49.024;8.246;2023-07-09T00:48:52;11.57;;;5.00;;
22603;SDS011;11469;49.024;8.246;2023-07-09T00:51:22;13.25;;;5.03;;
22603;SDS011;11469;49.024;8.246;2023-07-09T00:53:52;8.55;;;4.93;;
22603;SDS011;11469;49.024;8.246;2023-07-09T00:56:42;14.95;;;5.32;;
22603;SDS011;11469;49.024;8.246;2023-07-09T00:59:12;10.65;;;5.10;;
22603;SDS011;11469;49.024;8.246;2023-07-09T01:01:43;8.77;;;5.30;;
22603;SDS011;11469;49.024;8.246;2023-07-09T01:04:11;10.25;;;4.30;;
22603;SDS011;11469;49.024;8.246;2023-07-09T01:06:38;9.32;;;5.07;;
22603;SDS011;11469;49.024;8.246;2023-07-09T01:09:08;12.05;;;5.97;;
22603;SDS011;11469;49.024;8.246;2023-07-09T01:11:33;12.88;;;5.93;;
22603;SDS011;11469;49.024;8.246;2023-07-09T01:14:00;11.30;;;5.15;;
22603;SDS011;11469;49.024;8.246;2023-07-09T01:16:28;11.45;;;4.85;;
22603;SDS011;11469;49.024;8.246;2023-07-09T01:18:56;12.27;;;5.45;;
22603;SDS011;11469;49.024;8.246;2023-07-09T01:21:22;9.70;;;5.20;;
22603;SDS011;11469;49.024;8.246;2023-07-09T01:23:48;8.85;;;5.00;;
22603;SDS011;11469;49.024;8.246;2023-07-09T01:26:19;11.18;;;5.47;;
22603;SDS011;11469;49.024;8.246;2023-07-09T01:28:46;10.43;;;5.28;;
22603;SDS011;11469;49.024;8.246;2023-07-09T01:31:13;11.60;;;5.07;;
22603;SDS011;11469;49.024;8.246;2023-07-09T01:33:40;7.68;;;4.50;;
22603;SDS011;11469;49.024;8.246;2023-07-09T01:36:09;10.50;;;5.00;;
22603;SDS011;11469;49.024;8.246;2023-07-09T01:38:41;11.30;;;5.45;;
22603;SDS011;11469;49.024;8.246;2023-07-09T01:41:08;9.43;;;5.47;;
22603;SDS011;11469;49.024;8.246;2023-07-09T01:43:38;7.97;;;4.72;;
22603;SDS011;11469;49.024;8.246;2023-07-09T01:46:06;12.63;;;5.15;;
22603;SDS011;11469;49.024;8.246;2023-07-09T01:48:33;6.85;;;5.03;;
22603;SDS011;11469;49.024;8.246;2023-07-09T01:51:06;8.40;;;5.53;;
22603;SDS011;11469;49.024;8.246;2023-07-09T01:53:34;14.63;;;5.47;;
22603;SDS011;11469;49.024;8.246;2023-07-09T01:56:02;11.50;;;5.30;;
22603;SDS011;11469;49.024;8.246;2023-07-09T01:58:28;8.00;;;4.95;;
22603;SDS011;11469;49.024;8.246;2023-07-09T02:00:56;11.73;;;5.15;;
22603;SDS011;11469;49.024;8.246;2023-07-09T02:03:22;14.30;;;5.45;;
22603;SDS011;11469;49.024;8.246;2023-07-09T02:05:54;10.82;;;5.57;;
22603;SDS011;11469;49.024;8.246;2023-07-09T02:08:20;10.50;;;5.05;;
22603;SDS011;11469;49.024;8.246;2023-07-09T02:10:48;9.88;;;5.32;;
22603;SDS011;11469;49.024;8.246;2023-07-09T02:13:14;9.40;;;5.47;;
22603;SDS011;11469;49.024;8.246;2023-07-09T02:15:40;9.57;;;5.25;;
22603;SDS011;11469;49.024;8.246;2023-07-09T02:18:08;13.70;;;5.85;;
22603;SDS011;11469;49.024;8.246;2023-07-09T02:20:45;10.32;;;5.18;;
22603;SDS011;11469;49.024;8.246;2023-07-09T02:23:11;9.57;;;5.18;;
22603;SDS011;11469;49.024;8.246;2023-07-09T02:25:36;11.63;;;5.75;;
22603;SDS011;11469;49.024;8.246;2023-07-09T02:28:02;13.50;;;5.68;;
22603;SDS011;11469;49.024;8.246;2023-07-09T02:30:28;9.00;;;5.22;;
22603;SDS011;11469;49.024;8.246;2023-07-09T02:32:53;11.30;;;5.53;;
22603;SDS011;11469;49.024;8.246;2023-07-09T02:35:19;12.75;;;5.63;;
22603;SDS011;11469;49.024;8.246;2023-07-09T02:37:45;8.95;;;4.90;;
22603;SDS011;11469;49.024;8.246;2023-07-09T02:40:11;8.60;;;5.40;;
22603;SDS011;11469;49.024;8.246;2023-07-09T02:42:37;9.30;;;5.18;;
22603;SDS011;11469;49.024;8.246;2023-07-09T02:45:02;16.75;;;6.00;;
22603;SDS011;11469;49.024;8.246;2023-07-09T02:47:29;10.77;;;5.20;;
22603;SDS011;11469;49.024;8.246;2023-07-09T02:49:54;12.32;;;5.43;;
22603;SDS011;11469;49.024;8.246;2023-07-09T02:52:19;10.63;;;5.55;;
22603;SDS011;11469;49.024;8.246;2023-07-09T02:54:45;10.63;;;5.18;;
22603;SDS011;11469;49.024;8.246;2023-07-09T02:57:11;8.93;;;5.55;;
22603;SDS011;11469;49.024;8.246;2023-07-09T02:59:36;10.85;;;5.25;;
22603;SDS011;11469;49.024;8.246;2023-07-09T03:02:02;9.23;;;5.00;;
22603;SDS011;11469;49.024;8.246;2023-07-09T03:04:28;8.13;;;4.93;;
22603;SDS011;11469;49.024;8.246;2023-07-09T03:06:54;10.02;;;5.30;;
22603;SDS011;11469;49.024;8.246;2023-07-09T03:09:19;7.47;;;4.95;;
22603;SDS011;11469;49.024;8.246;2023-07-09T03:11:48;10.75;;;5.53;;
22603;SDS011;11469;49.024;8.246;2023-07-09T03:14:14;9.93;;;4.45;;
22603;SDS011;11469;49.024;8.246;2023-07-09T03:16:40;10.30;;;5.53;;
22603;SDS011;11469;49.024;8.246;2023-07-09T03:19:06;9.38;;;5.80;;
22603;SDS011;11469;49.024;8.246;2023-07-09T03:21:32;10.75;;;5.88;;
22603;SDS011;11469;49.024;8.246;2023-07-09T03:23:58;16.88;;;5.68;;
22603;SDS011;11469;49.024;8.246;2023-07-09T03:26:23;12.00;;;5.75;;
22603;SDS011;11469;49.024;8.246;2023-07-09T03:28:50;12.77;;;5.95;;
22603;SDS011;11469;49.024;8.246;2023-07-09T03:31:16;11.18;;;5.40;;
22603;SDS011;11469;49.024;8.246;2023-07-09T03:33:42;9.43;;;5.22;;
22603;SDS011;11469;49.024;8.246;2023-07-09T03:36:07;9.75;;;6.35;;
22603;SDS011;11469;49.024;8.246;2023-07-09T03:38:33;11.73;;;5.93;;
22603;SDS011;11469;49.024;8.246;2023-07-09T03:40:58;10.60;;;5.78;;
22603;SDS011;11469;49.024;8.246;2023-07-09T03:43:24;9.60;;;4.90;;
22603;SDS011;11469;49.024;8.246;2023-07-09T03:45:50;12.35;;;5.70;;
22603;SDS011;11469;49.024;8.246;2023-07-09T03:48:16;11.63;;;5.43;;
22603;SDS011;11469;49.024;8.246;2023-07-09T03:50:45;9.50;;;5.35;;
22603;SDS011;11469;49.024;8.246;2023-07-09T03:53:11;11.07;;;5.68;;
22603;SDS011;11469;49.024;8.246;2023-07-09T03:55:38;10.60;;;5.95;;
22603;SDS011;11469;49.024;8.246;2023-07-09T03:58:03;13.80;;;6.43;;
22603;SDS011;11469;49.024;8.246;2023-07-09T04:00:30;11.13;;;6.20;;
22603;SDS011;11469;49.024;8.246;2023-07-09T04:02:56;16.08;;;6.43;;
22603;SDS011;11469;49.024;8.246;2023-07-09T04:05:24;13.10;;;5.65;;
22603;SDS011;11469;49.024;8.246;2023-07-09T04:07:50;9.07;;;5.55;;
22603;SDS011;11469;49.024;8.246;2023-07-09T04:10:16;11.90;;;5.60;;
22603;SDS011;11469;49.024;8.246;2023-07-09T04:12:42;11.18;;;5.18;;
22603;SDS011;11469;49.024;8.246;2023-07-09T04:15:08;12.38;;;6.13;;
22603;SDS011;11469;49.024;8.246;2023-07-09T04:17:34;10.27;;;5.50;;
22603;SDS011;11469;49.024;8.246;2023-07-09T04:20:00;10.25;;;6.05;;
22603;SDS011;11469;49.024;8.246;2023-07-09T04:22:26;13.07;;;5.28;;
22603;SDS011;11469;49.024;8.246;2023-07-09T04:24:51;8.15;;;5.38;;
22603;SDS011;11469;49.024;8.246;2023-07-09T04:27:17;8.77;;;5.38;;
22603;SDS011;11469;49.024;8.246;2023-07-09T04:29:43;13.57;;;6.13;;
22603;SDS011;11469;49.024;8.246;2023-07-09T04:32:13;14.40;;;5.63;;
22603;SDS011;11469;49.024;8.246;2023-07-09T04:34:39;13.18;;;5.85;;
22603;SDS011;11469;49.024;8.246;2023-07-09T04:37:06;10.38;;;5.57;;
22603;SDS011;11469;49.024;8.246;2023-07-09T04:39:33;11.55;;;5.82;;
22603;SDS011;11469;49.024;8.246;2023-07-09T04:41:58;13.38;;;5.63;;
22603;SDS011;11469;49.024;8.246;2023-07-09T04:44:24;11.93;;;5.32;;
22603;SDS011;11469;49.024;8.246;2023-07-09T04:46:50;13.13;;;5.22;;
22603;SDS011;11469;49.024;8.246;2023-07-09T04:49:15;16.67;;;5.60;;
22603;SDS011;11469;49.024;8.246;2023-07-09T04:51:40;14.25;;;5.32;;
22603;SDS011;11469;49.024;8.246;2023-07-09T04:54:06;10.45;;;6.20;;
22603;SDS011;11469;49.024;8.246;2023-07-09T04:56:31;10.55;;;5.47;;
22603;SDS011;11469;49.024;8.246;2023-07-09T04:58:56;11.40;;;6.20;;
22603;SDS011;11469;49.024;8.246;2023-07-09T05:01:22;9.88;;;5.30;;
22603;SDS011;11469;49.024;8.246;2023-07-09T05:03:47;7.95;;;4.68;;
22603;SDS011;11469;49.024;8.246;2023-07-09T05:06:13;9.82;;;5.28;;
22603;SDS011;11469;49.024;8.246;2023-07-09T05:08:39;10.52;;;5.50;;
22603;SDS011;11469;49.024;8.246;2023-07-09T05:11:04;7.95;;;4.75;;
22603;SDS011;11469;49.024;8.246;2023-07-09T05:13:29;9.10;;;5.45;;
22603;SDS011;11469;49.024;8.246;2023-07-09T05:15:55;9.27;;;5.00;;
22603;SDS011;11469;49.024;8.246;2023-07-09T05:18:20;10.82;;;4.80;;
22603;SDS011;11469;49.024;8.246;2023-07-09T05:20:46;10.38;;;5.10;;
22603;SDS011;11469;49.024;8.246;2023-07-09T05:23:12;10.95;;;5.43;;
22603;SDS011;11469;49.024;8.246;2023-07-09T05:25:37;14.68;;;5.72;;
22603;SDS011;11469;49.024;8.246;2023-07-09T05:28:03;12.10;;;5.90;;
22603;SDS011;11469;49.024;8.246;2023-07-09T05:30:30;12.60;;;6.05;;
22603;SDS011;11469;49.024;8.246;2023-07-09T05:32:56;10.38;;;5.35;;
22603;SDS011;11469;49.024;8.246;2023-07-09T05:35:24;14.50;;;5.63;;
22603;SDS011;11469;49.024;8.246;2023-07-09T05:37:51;9.30;;;5.75;;
22603;SDS011;11469;49.024;8.246;2023-07-09T05:40:17;10.80;;;5.90;;
22603;SDS011;11469;49.024;8.246;2023-07-09T05:42:43;15.43;;;5.82;;
22603;SDS011;11469;49.024;8.246;2023-07-09T05:45:08;11.60;;;6.05;;
22603;SDS011;11469;49.024;8.246;2023-07-09T05:47:34;12.07;;;6.55;;
22603;SDS011;11469;49.024;8.246;2023-07-09T05:49:59;12.05;;;5.93;;
22603;SDS011;11469;49.024;8.246;2023-07-09T05:52:25;15.98;;;5.65;;
22603;SDS011;11469;49.024;8.246;2023-07-09T05:54:50;10.38;;;6.18;;
22603;SDS011;11469;49.024;8.246;2023-07-09T05:57:17;14.48;;;6.25;;
22603;SDS011;11469;49.024;8.246;2023-07-09T05:59:43;17.20;;;6.85;;
22603;SDS011;11469;49.024;8.246;2023-07-09T06:02:11;11.32;;;5.65;;
22603;SDS011;11469;49.024;8.246;2023-07-09T06:04:38;13.20;;;6.13;;
22603;SDS011;11469;49.024;8.246;2023-07-09T06:07:03;12.15;;;6.30;;
22603;SDS011;11469;49.024;8.246;2023-07-09T06:09:29;12.45;;;6.00;;
22603;SDS011;11469;49.024;8.246;2023-07-09T06:11:55;8.35;;;5.63;;
22603;SDS011;11469;49.024;8.246;2023-07-09T06:14:21;11.68;;;5.70;;
22603;SDS011;11469;49.024;8.246;2023-07-09T06:16:46;20.73;;;6.38;;
22603;SDS011;11469;49.024;8.246;2023-07-09T06:19:12;12.05;;;5.82;;
22603;SDS011;11469;49.024;8.246;2023-07-09T06:21:38;10.75;;;5.90;;
22603;SDS011;11469;49.024;8.246;2023-07-09T06:24:05;11.25;;;5.72;;
22603;SDS011;11469;49.024;8.246;2023-07-09T06:26:31;8.80;;;5.72;;
22603;SDS011;11469;49.024;8.246;2023-07-09T06:28:56;13.70;;;6.43;;
22603;SDS011;11469;49.024;8.246;2023-07-09T06:31:22;10.65;;;5.53;;
22603;SDS011;11469;49.024;8.246;2023-07-09T06:33:49;14.52;;;6.32;;
22603;SDS011;11469;49.024;8.246;2023-07-09T06:36:16;10.40;;;6.00;;
22603;SDS011;11469;49.024;8.246;2023-07-09T06:38:43;8.15;;;5.63;;
22603;SDS011;11469;49.024;8.246;2023-07-09T06:41:09;13.23;;;5.85;;
22603;SDS011;11469;49.024;8.246;2023-07-09T06:43:35;14.73;;;5.55;;
22603;SDS011;11469;49.024;8.246;2023-07-09T06:46:04;13.48;;;5.45;;
22603;SDS011;11469;49.024;8.246;2023-07-09T06:48:30;12.65;;;5.75;;
22603;SDS011;11469;49.024;8.246;2023-07-09T06:50:56;8.98;;;5.53;;
22603;SDS011;11469;49.024;8.246;2023-07-09T06:53:22;9.50;;;5.35;;
22603;SDS011;11469;49.024;8.246;2023-07-09T06:55:48;14.25;;;5.90;;
22603;SDS011;11469;49.024;8.246;2023-07-09T06:58:18;12.10;;;5.50;;
22603;SDS011;11469;49.024;8.246;2023-07-09T07:00:44;8.52;;;5.20;;
22603;SDS011;11469;49.024;8.246;2023-07-09T07:03:10;10.52;;;5.70;;
22603;SDS011;11469;49.024;8.246;2023-07-09T07:05:36;11.48;;;5.18;;
22603;SDS011;11469;49.024;8.246;2023-07-09T07:08:02;14.80;;;5.70;;
22603;SDS011;11469;49.024;8.246;2023-07-09T07:10:28;12.00;;;5.65;;
22603;SDS011;11469;49.024;8.246;2023-07-09T07:12:55;10.23;;;5.15;;
22603;SDS011;11469;49.024;8.246;2023-07-09T07:15:23;9.80;;;5.03;;
22603;SDS011;11469;49.024;8.246;2023-07-09T07:17:49;11.57;;;4.82;;
22603;SDS011;11469;49.024;8.246;2023-07-09T07:20:15;11.73;;;5.15;;
22603;SDS011;11469;49.024;8.246;2023-07-09T07:22:41;10.20;;;5.47;;
22603;SDS011;11469;49.024;8.246;2023-07-09T07:25:07;10.35;;;5.50;;
22603;SDS011;11469;49.024;8.246;2023-07-09T07:27:33;11.13;;;5.38;;
22603;SDS011;11469;49.024;8.246;2023-07-09T07:30:00;8.02;;;5.35;;
22603;SDS011;11469;49.024;8.246;2023-07-09T07:32:26;14.75;;;5.55;;
22603;SDS011;11469;49.024;8.246;2023-07-09T07:34:51;12.95;;;5.55;;
22603;SDS011;11469;49.024;8.246;2023-07-09T07:37:18;9.57;;;5.30;;
22603;SDS011;11469;49.024;8.246;2023-07-09T07:39:47;7.65;;;4.78;;
22603;SDS011;11469;49.024;8.246;2023-07-09T07:42:13;9.98;;;5.07;;
22603;SDS011;11469;49.024;8.246;2023-07-09T07:44:38;13.77;;;4.93;;
22603;SDS011;11469;49.024;8.246;2023-07-09T07:47:04;9.13;;;4.95;;
22603;SDS011;11469;49.024;8.246;2023-07-09T07:49:30;13.98;;;5.32;;
22603;SDS011;11469;49.024;8.246;2023-07-09T07:51:56;8.77;;;5.00;;
22603;SDS011;11469;49.024;8.246;2023-07-09T07:54:21;7.78;;;4.68;;
22603;SDS011;11469;49.024;8.246;2023-07-09T07:56:46;10.65;;;5.07;;
22603;SDS011;11469;49.024;8.246;2023-07-09T07:59:12;8.60;;;4.82;;
22603;SDS011;11469;49.024;8.246;2023-07-09T08:01:38;15.45;;;5.07;;
22603;SDS011;11469;49.024;8.246;2023-07-09T08:04:03;10.90;;;5.90;;
22603;SDS011;11469;49.024;8.246;2023-07-09T08:06:28;12.52;;;5.50;;
22603;SDS011;11469;49.024;8.246;2023-07-09T08:08:56;11.18;;;5.53;;
22603;SDS011;11469;49.024;8.246;2023-07-09T08:11:22;11.18;;;4.88;;
22603;SDS011;11469;49.024;8.246;2023-07-09T08:13:47;12.90;;;4.50;;
22603;SDS011;11469;49.024;8.246;2023-07-09T08:16:13;15.27;;;5.68;;
22603;SDS011;11469;49.024;8.246;2023-07-09T08:18:38;11.80;;;4.53;;
22603;SDS011;11469;49.024;8.246;2023-07-09T08:21:04;6.32;;;4.45;;
22603;SDS011;11469;49.024;8.246;2023-07-09T08:23:30;11.27;;;4.63;;
22603;SDS011;11469;49.024;8.246;2023-07-09T08:25:56;12.98;;;5.07;;
22603;SDS011;11469;49.024;8.246;2023-07-09T08:28:22;10.30;;;3.95;;
22603;SDS011;11469;49.024;8.246;2023-07-09T08:30:48;10.98;;;5.00;;
22603;SDS011;11469;49.024;8.246;2023-07-09T08:33:13;11.40;;;4.97;;
22603;SDS011;11469;49.024;8.246;2023-07-09T08:35:41;9.57;;;4.40;;
22603;SDS011;11469;49.024;8.246;2023-07-09T08:38:08;8.98;;;5.07;;
22603;SDS011;11469;49.024;8.246;2023-07-09T08:40:35;7.88;;;4.55;;
22603;SDS011;11469;49.024;8.246;2023-07-09T08:43:16;15.25;;;5.00;;
22603;SDS011;11469;49.024;8.246;2023-07-09T08:45:54;11.18;;;5.00;;
22603;SDS011;11469;49.024;8.246;2023-07-09T08:48:29;9.23;;;4.20;;
22603;SDS011;11469;49.024;8.246;2023-07-09T08:50:59;16.00;;;4.25;;
22603;SDS011;11469;49.024;8.246;2023-07-09T08:56:03;11.10;;;4.65;;
22603;SDS011;11469;49.024;8.246;2023-07-09T08:58:29;11.00;;;5.35;;
22603;SDS011;11469;49.024;8.246;2023-07-09T09:00:57;12.10;;;5.00;;
22603;SDS011;11469;49.024;8.246;2023-07-09T09:06:31;7.28;;;4.47;;
22603;SDS011;11469;49.024;8.246;2023-07-09T09:09:14;7.15;;;4.32;;
22603;SDS011;11469;49.024;8.246;2023-07-09T09:14:47;7.93;;;4.30;;
22603;SDS011;11469;49.024;8.246;2023-07-09T09:17:23;6.30;;;3.85;;
22603;SDS011;11469;49.024;8.246;2023-07-09T09:22:25;12.75;;;4.30;;
22603;SDS011;11469;49.024;8.246;2023-07-09T09:27:28;7.35;;;4.07;;
22603;SDS011;11469;49.024;8.246;2023-07-09T09:29:53;13.65;;;4.68;;
22603;SDS011;11469;49.024;8.246;2023-07-09T09:32:30;9.05;;;4.20;;
22603;SDS011;11469;49.024;8.246;2023-07-09T09:35:17;8.07;;;4.38;;
22603;SDS011;11469;49.024;8.246;2023-07-09T09:37:49;10.73;;;4.53;;
22603;SDS011;11469;49.024;8.246;2023-07-09T09:40:17;6.28;;;4.40;;
22603;SDS011;11469;49.024;8.246;2023-07-09T09:42:47;10.68;;;4.55;;
22603;SDS011;11469;49.024;8.246;2023-07-09T09:45:20;11.13;;;4.32;;
22603;SDS011;11469;49.024;8.246;2023-07-09T09:47:49;7.45;;;4.00;;
22603;SDS011;11469;49.024;8.246;2023-07-09T09:50:19;10.52;;;3.90;;
22603;SDS011;11469;49.024;8.246;2023-07-09T09:52:48;7.13;;;4.20;;
22603;SDS011;11469;49.024;8.246;2023-07-09T09:55:18;15.73;;;4.15;;
22603;SDS011;11469;49.024;8.246;2023-07-09T09:57:49;12.77;;;4.63;;
22603;SDS011;11469;49.024;8.246;2023-07-09T10:00:21;10.70;;;5.00;;
22603;SDS011;11469;49.024;8.246;2023-07-09T10:02:48;9.57;;;4.40;;
22603;SDS011;11469;49.024;8.246;2023-07-09T10:05:20;9.52;;;5.03;;
22603;SDS011;11469;49.024;8.246;2023-07-09T10:10:28;11.50;;;4.88;;
22603;SDS011;11469;49.024;8.246;2023-07-09T10:13:43;9.65;;;5.10;;
22603;SDS011;11469;49.024;8.246;2023-07-09T10:18:43;8.38;;;4.07;;
22603;SDS011;11469;49.024;8.246;2023-07-09T10:21:30;11.73;;;4.93;;
22603;SDS011;11469;49.024;8.246;2023-07-09T10:26:54;7.90;;;4.57;;
22603;SDS011;11469;49.024;8.246;2023-07-09T10:32:57;10.02;;;4.47;;
22603;SDS011;11469;49.024;8.246;2023-07-09T10:40:58;8.45;;;3.92;;
22603;SDS011;11469;49.024;8.246;2023-07-09T10:43:31;9.23;;;4.47;;
22603;SDS011;11469;49.024;8.246;2023-07-09T10:46:05;9.90;;;4.30;;
22603;SDS011;11469;49.024;8.246;2023-07-09T10:48:40;12.23;;;4.90;;
22603;SDS011;11469;49.024;8.246;2023-07-09T10:51:17;7.97;;;4.35;;
22603;SDS011;11469;49.024;8.246;2023-07-09T10:54:38;8.43;;;4.50;;
22603;SDS011;11469;49.024;8.246;2023-07-09T10:57:00;8.40;;;3.72;;
22603;SDS011;11469;49.024;8.246;2023-07-09T10:59:33;8.77;;;4.10;;
22603;SDS011;11469;49.024;8.246;2023-07-09T11:02:13;8.00;;;4.30;;
22603;SDS011;11469;49.024;8.246;2023-07-09T11:04:46;8.13;;;4.20;;
22603;SDS011;11469;49.024;8.246;2023-07-09T11:07:17;7.93;;;4.20;;
22603;SDS011;11469;49.024;8.246;2023-07-09T11:09:48;9.05;;;4.30;;
22603;SDS011;11469;49.024;8.246;2023-07-09T11:12:19;11.82;;;4.15;;
22603;SDS011;11469;49.024;8.246;2023-07-09T11:17:37;9.25;;;4.20;;
22603;SDS011;11469;49.024;8.246;2023-07-09T11:20:17;7.40;;;4.25;;
22603;SDS011;11469;49.024;8.246;2023-07-09T11:22:53;8.32;;;4.55;;
22603;SDS011;11469;49.024;8.246;2023-07-09T11:25:27;7.47;;;4.07;;
22603;SDS011;11469;49.024;8.246;2023-07-09T11:28:03;7.07;;;4.15;;
22603;SDS011;11469;49.024;8.246;2023-07-09T11:30:30;9.45;;;4.00;;
22603;SDS011;11469;49.024;8.246;2023-07-09T11:32:57;13.23;;;3.92;;
22603;SDS011;11469;49.024;8.246;2023-07-09T11:35:28;12.25;;;4.50;;
22603;SDS011;11469;49.024;8.246;2023-07-09T11:37:54;6.78;;;3.90;;
22603;SDS011;11469;49.024;8.246;2023-07-09T11:40:21;11.52;;;3.55;;
22603;SDS011;11469;49.024;8.246;2023-07-09T11:42:55;7.30;;;4.18;;
22603;SDS011;11469;49.024;8.246;2023-07-09T11:45:31;7.82;;;3.92;;
22603;SDS011;11469;49.024;8.246;2023-07-09T11:48:05;9.13;;;4.20;;
22603;SDS011;11469;49.024;8.246;2023-07-09T11:50:44;7.38;;;3.80;;
22603;SDS011;11469;49.024;8.246;2023-07-09T11:53:18;10.93;;;3.75;;
22603;SDS011;11469;49.024;8.246;2023-07-09T11:56:07;7.78;;;3.90;;
22603;SDS011;11469;49.024;8.246;2023-07-09T11:58:32;15.05;;;4.03;;
22603;SDS011;11469;49.024;8.246;2023-07-09T12:00:58;9.73;;;4.20;;
22603;SDS011;11469;49.024;8.246;2023-07-09T12:03:27;6.85;;;3.55;;
22603;SDS011;11469;49.024;8.246;2023-07-09T12:06:01;9.52;;;4.03;;
22603;SDS011;11469;49.024;8.246;2023-07-09T12:08:33;11.88;;;3.72;;
22603;SDS011;11469;49.024;8.246;2023-07-09T12:11:00;7.75;;;3.67;;
22603;SDS011;11469;49.024;8.246;2023-07-09T12:13:26;7.82;;;3.55;;
22603;SDS011;11469;49.024;8.246;2023-07-09T12:15:51;8.18;;;3.50;;
22603;SDS011;11469;49.024;8.246;2023-07-09T12:18:17;10.10;;;3.72;;
22603;SDS011;11469;49.024;8.246;2023-07-09T12:20:49;7.38;;;3.67;;
22603;SDS011;11469;49.024;8.246;2023-07-09T12:23:30;9.70;;;3.78;;
22603;SDS011;11469;49.024;8.246;2023-07-09T12:26:01;5.22;;;3.28;;
22603;SDS011;11469;49.024;8.246;2023-07-09T12:28:28;5.03;;;3.20;;
22603;SDS011;11469;49.024;8.246;2023-07-09T12:30:55;5.10;;;3.40;;
22603;SDS011;11469;49.024;8.246;2023-07-09T12:33:22;8.75;;;3.20;;
22603;SDS011;11469;49.024;8.246;2023-07-09T12:35:58;18.92;;;3.75;;
22603;SDS011;11469;49.024;8.246;2023-07-09T12:38:26;7.45;;;3.35;;
22603;SDS011;11469;49.024;8.246;2023-07-09T12:40:54;8.48;;;3.50;;
22603;SDS011;11469;49.024;8.246;2023-07-09T12:43:27;6.97;;;3.35;;
22603;SDS011;11469;49.024;8.246;2023-07-09T12:45:56;9.30;;;3.95;;
22603;SDS011;11469;49.024;8.246;2023-07-09T12:48:25;6.93;;;3.50;;
22603;SDS011;11469;49.024;8.246;2023-07-09T12:50:56;12.98;;;3.45;;
22603;SDS011;11469;49.024;8.246;2023-07-09T12:53:23;7.20;;;3.35;;
22603;SDS011;11469;49.024;8.246;2023-07-09T12:55:56;9.63;;;4.10;;
22603;SDS011;11469;49.024;8.246;2023-07-09T12:58:25;8.48;;;3.55;;
22603;SDS011;11469;49.024;8.246;2023-07-09T13:00:55;10.82;;;3.88;;
22603;SDS011;11469;49.024;8.246;2023-07-09T13:03:24;8.70;;;3.42;;
22603;SDS011;11469;49.024;8.246;2023-07-09T13:08:26;5.10;;;3.10;;
22603;SDS011;11469;49.024;8.246;2023-07-09T13:10:53;12.13;;;3.50;;
22603;SDS011;11469;49.024;8.246;2023-07-09T13:13:23;11.30;;;3.72;;
22603;SDS011;11469;49.024;8.246;2023-07-09T13:15:55;5.43;;;3.22;;
22603;SDS011;11469;49.024;8.246;2023-07-09T13:18:24;9.15;;;4.00;;
22603;SDS011;11469;49.024;8.246;2023-07-09T13:20:50;6.22;;;3.40;;
22603;SDS011;11469;49.024;8.246;2023-07-09T13:23:17;6.10;;;3.20;;
22603;SDS011;11469;49.024;8.246;2023-07-09T13:25:42;5.53;;;3.40;;
22603;SDS011;11469;49.024;8.246;2023-07-09T13:31:14;6.38;;;3.42;;
22603;SDS011;11469;49.024;8.246;2023-07-09T13:33:42;6.93;;;3.38;;
22603;SDS011;11469;49.024;8.246;2023-07-09T13:36:08;13.50;;;3.33;;
22603;SDS011;11469;49.024;8.246;2023-07-09T13:38:33;8.75;;;3.33;;
22603;SDS011;11469;49.024;8.246;2023-07-09T13:41:00;5.63;;;3.17;;
22603;SDS011;11469;49.024;8.246;2023-07-09T13:43:35;9.32;;;3.70;;
22603;SDS011;11469;49.024;8.246;2023-07-09T13:46:02;4.75;;;3.05;;
22603;SDS011;11469;49.024;8.246;2023-07-09T13:48:31;4.25;;;2.72;;
22603;SDS011;11469;49.024;8.246;2023-07-09T13:50:57;6.65;;;3.58;;
22603;SDS011;11469;49.024;8.246;2023-07-09T13:53:25;14.75;;;3.60;;
22603;SDS011;11469;49.024;8.246;2023-07-09T13:55:54;12.20;;;3.78;;
22603;SDS011;11469;49.024;8.246;2023-07-09T13:58:21;6.75;;;3.38;;
22603;SDS011;11469;49.024;8.246;2023-07-09T14:00:50;9.63;;;3.67;;
22603;SDS011;11469;49.024;8.246;2023-07-09T14:03:25;6.03;;;3.13;;
22603;SDS011;11469;49.024;8.246;2023-07-09T14:05:53;5.80;;;3.20;;
22603;SDS011;11469;49.024;8.246;2023-07-09T14:08:19;6.38;;;3.45;;
22603;SDS011;11469;49.024;8.246;2023-07-09T14:10:45;7.35;;;3.58;;
22603;SDS011;11469;49.024;8.246;2023-07-09T14:13:12;6.40;;;3.17;;
22603;SDS011;11469;49.024;8.246;2023-07-09T14:15:39;8.68;;;3.40;;
22603;SDS011;11469;49.024;8.246;2023-07-09T14:18:10;10.70;;;3.47;;
22603;SDS011;11469;49.024;8.246;2023-07-09T14:20:37;11.02;;;3.67;;
22603;SDS011;11469;49.024;8.246;2023-07-09T14:23:02;5.72;;;3.67;;
22603;SDS011;11469;49.024;8.246;2023-07-09T14:25:28;6.50;;;3.70;;
22603;SDS011;11469;49.024;8.246;2023-07-09T14:27:53;10.80;;;3.38;;
22603;SDS011;11469;49.024;8.246;2023-07-09T14:30:20;11.30;;;3.85;;
22603;SDS011;11469;49.024;8.246;2023-07-09T14:32:49;9.65;;;3.10;;
22603;SDS011;11469;49.024;8.246;2023-07-09T14:35:19;10.10;;;3.30;;
22603;SDS011;11469;49.024;8.246;2023-07-09T14:37:47;7.88;;;3.20;;
22603;SDS011;11469;49.024;8.246;2023-07-09T14:40:15;6.53;;;3.78;;
22603;SDS011;11469;49.024;8.246;2023-07-09T14:42:42;6.07;;;3.17;;
22603;SDS011;11469;49.024;8.246;2023-07-09T14:45:19;10.07;;;3.55;;
22603;SDS011;11469;49.024;8.246;2023-07-09T14:47:45;6.00;;;3.15;;
22603;SDS011;11469;49.024;8.246;2023-07-09T14:50:10;7.90;;;3.20;;
22603;SDS011;11469;49.024;8.246;2023-07-09T14:52:40;7.50;;;3.70;;
22603;SDS011;11469;49.024;8.246;2023-07-09T14:55:08;7.43;;;3.17;;
22603;SDS011;11469;49.024;8.246;2023-07-09T14:57:39;12.85;;;3.75;;
22603;SDS011;11469;49.024;8.246;2023-07-09T15:00:04;7.77;;;3.13;;
22603;SDS011;11469;49.024;8.246;2023-07-09T15:05:22;6.75;;;3.20;;
22603;SDS011;11469;49.024;8.246;2023-07-09T15:07:50;7.63;;;3.00;;
22603;SDS011;11469;49.024;8.246;2023-07-09T15:10:23;8.63;;;3.22;;
22603;SDS011;11469;49.024;8.246;2023-07-09T15:12:49;8.32;;;3.65;;
22603;SDS011;11469;49.024;8.246;2023-07-09T15:15:28;8.50;;;3.75;;
22603;SDS011;11469;49.024;8.246;2023-07-09T15:17:56;5.90;;;3.22;;
22603;SDS011;11469;49.024;8.246;2023-07-09T15:20:25;7.88;;;4.22;;
22603;SDS011;11469;49.024;8.246;2023-07-09T15:22:52;10.43;;;4.95;;
22603;SDS011;11469;49.024;8.246;2023-07-09T15:25:26;6.65;;;4.40;;
22603;SDS011;11469;49.024;8.246;2023-07-09T15:27:53;7.47;;;4.10;;
22603;SDS011;11469;49.024;8.246;2023-07-09T15:30:22;10.07;;;4.72;;
22603;SDS011;11469;49.024;8.246;2023-07-09T15:32:54;9.85;;;4.72;;
22603;SDS011;11469;49.024;8.246;2023-07-09T15:35:21;7.65;;;4.18;;